Time;durP1;ratioP1;P1;durP2;ratioP2;P2;SDS_P1;SDS_P2;PMS_P1;PMS_P2;Temp;Humidity;BMP_temperature;BMP_pressure;BME280_temperature;BME280_humidity;BME280_pressure;Samples;Min_cycle;Max_cycle;Signal;HPM_P1;HPM_P2
2022/07/13 00:01:32;;;;;;;3.50;3.20;;;;;;;18.72;81.02;98858.97;4126553;28;21019;-86
2022/07/13 00:03:36;;;;;;;4.87;3.63;;;;;;;18.73;80.95;98868.56;4113014;28;20643;-86
2022/07/13 00:05:39;;;;;;;4.33;3.33;;;;;;;18.74;80.27;98877.34;4108131;28;20689;-86
2022/07/13 00:07:42;;;;;;;4.80;3.70;;;;;;;18.71;80.51;98867.84;4127685;28;20709;-85
2022/07/13 00:09:45;;;;;;;3.90;3.50;;;;;;;18.68;80.62;98869.94;4124902;28;21245;-86
2022/07/13 00:11:49;;;;;;;3.40;3.10;;;;;;;18.62;79.93;98860.75;4111677;28;21036;-86
2022/07/13 00:13:53;;;;;;;4.90;3.40;;;;;;;18.55;80.76;98862.28;4107763;28;20649;-86
2022/07/13 00:15:56;;;;;;;3.93;3.53;;;;;;;18.50;81.23;98859.16;4107511;28;21219;-85
2022/07/13 00:30:15;;;;;;;3.93;3.53;;;;;;;18.23;81.77;98857.28;4108955;28;20624;-86
2022/07/13 00:41:15;;;;;;;3.80;3.13;;;;;;;18.09;81.74;98860.25;4107873;28;20998;-86
2022/07/13 00:43:19;;;;;;;4.77;3.53;;;;;;;18.06;82.33;98858.72;4121783;28;20646;-85
2022/07/13 00:45:23;;;;;;;4.37;3.27;;;;;;;18.03;81.93;98855.50;4126422;28;20748;-85
2022/07/13 00:47:31;;;;;;;4.00;3.30;;;;;;;18.00;82.23;98853.13;4124501;28;21211;-85
2022/07/13 00:49:34;;;;;;;4.00;3.47;;;;;;;17.98;82.83;98860.31;4108721;28;21198;-86
2022/07/13 00:51:38;;;;;;;4.10;3.60;;;;;;;17.97;82.71;98862.13;4125824;28;20635;-86
2022/07/13 00:53:41;;;;;;;4.10;3.40;;;;;;;17.94;81.92;98856.28;4110033;28;21120;-86
2022/07/13 00:55:44;;;;;;;3.73;3.17;;;;;;;17.92;82.27;98856.41;4112956;28;20685;-86
2022/07/13 00:57:47;;;;;;;4.37;3.70;;;;;;;17.86;83.00;98857.91;4109481;28;20711;-86
2022/07/13 00:59:51;;;;;;;3.07;2.77;;;;;;;17.81;82.76;98854.81;4109525;28;20686;-85
2022/07/13 01:01:55;;;;;;;4.40;3.80;;;;;;;17.80;83.52;98859.28;4125466;28;20716;-85
2022/07/13 01:03:58;;;;;;;3.67;3.37;;;;;;;17.79;83.43;98852.31;4127636;28;20648;-86
2022/07/13 01:06:02;;;;;;;6.87;5.83;;;;;;;17.79;83.59;98843.56;4111563;28;21251;-86
2022/07/13 01:08:05;;;;;;;5.07;3.80;;;;;;;17.77;83.42;98843.69;4128134;28;21209;-86
2022/07/13 01:10:10;;;;;;;3.43;3.00;;;;;;;17.76;83.44;98842.00;4128024;28;20990;-86
2022/07/13 01:12:13;;;;;;;4.80;3.87;;;;;;;17.74;82.51;98837.81;4111444;28;20732;-85
2022/07/13 01:14:16;;;;;;;4.63;4.13;;;;;;;17.71;82.25;98838.94;4112168;28;20726;-86
2022/07/13 01:16:20;;;;;;;5.17;3.80;;;;;;;17.71;83.82;98844.22;4113621;28;20645;-86
2022/07/13 01:18:24;;;;;;;5.10;3.53;;;;;;;17.72;83.08;98839.75;4093886;28;20648;-85
2022/07/13 01:20:28;;;;;;;3.97;3.43;;;;;;;17.71;82.87;98840.72;4127179;28;20641;-86
2022/07/13 01:22:35;;;;;;;3.87;3.50;;;;;;;17.69;83.95;98840.84;4124647;28;20715;-85
2022/07/13 01:24:39;;;;;;;3.93;3.53;;;;;;;17.69;83.85;98845.31;4110199;28;20657;-86
2022/07/13 01:26:42;;;;;;;3.90;3.47;;;;;;;17.67;83.34;98837.50;4109758;28;21002;-85
2022/07/13 01:28:45;;;;;;;6.77;3.27;;;;;;;17.68;83.31;98843.63;4125198;28;20647;-86
2022/07/13 01:30:49;;;;;;;6.60;3.20;;;;;;;17.66;83.31;98840.28;4126251;28;20642;-85
2022/07/13 01:32:52;;;;;;;4.70;3.40;;;;;;;17.59;83.21;98834.69;4123264;28;20645;-85
2022/07/13 01:34:57;;;;;;;3.70;3.30;;;;;;;17.56;82.92;98834.97;4095563;28;20662;-85
2022/07/13 01:37:00;;;;;;;4.00;3.40;;;;;;;17.52;84.01;98838.81;4125213;28;20638;-86
2022/07/13 01:39:04;;;;;;;4.83;3.53;;;;;;;17.48;83.78;98840.06;4093228;29;20658;-86
2022/07/13 01:41:09;;;;;;;5.10;3.53;;;;;;;17.46;83.13;98841.97;4110597;28;20625;-85
2022/07/13 01:43:12;;;;;;;3.80;3.50;;;;;;;17.45;83.02;98836.00;4090859;29;20631;-86
2022/07/13 01:45:16;;;;;;;3.93;3.37;;;;;;;17.42;83.17;98842.34;4106451;28;20638;-86
2022/07/13 01:47:20;;;;;;;6.40;3.37;;;;;;;17.37;83.26;98846.34;4123190;28;20648;-86
2022/07/13 01:49:23;;;;;;;4.93;3.67;;;;;;;17.36;83.06;98842.03;4109681;28;20634;-86
2022/07/13 01:51:26;;;;;;;3.80;3.40;;;;;;;17.36;83.18;98849.94;4125132;28;20629;-86
2022/07/13 01:53:29;;;;;;;5.53;4.37;;;;;;;17.32;83.66;98845.88;4110231;28;21283;-86
2022/07/13 01:55:32;;;;;;;4.83;3.67;;;;;;;17.31;83.77;98844.22;4092897;28;20729;-86
2022/07/13 01:57:37;;;;;;;4.00;3.60;;;;;;;17.29;84.27;98840.84;4111545;28;21030;-86
2022/07/13 01:59:40;;;;;;;3.53;3.20;;;;;;;17.27;83.78;98834.88;4107875;28;20656;-86
2022/07/13 02:01:44;;;;;;;5.27;3.70;;;;;;;17.25;84.03;98836.81;4124828;28;20640;-86
2022/07/13 02:03:47;;;;;;;4.83;3.60;;;;;;;17.24;85.00;98833.31;4108334;28;21879;-86
2022/07/13 02:05:51;;;;;;;5.60;3.50;;;;;;;17.24;84.70;98829.88;4127673;28;20651;-86
2022/07/13 02:07:54;;;;;;;4.17;3.67;;;;;;;17.21;83.98;98830.13;4124510;28;20617;-86
2022/07/13 02:10:00;;;;;;;4.10;3.70;;;;;;;17.21;84.46;98824.84;4126033;28;20641;-86
2022/07/13 02:12:05;;;;;;;5.73;3.20;;;;;;;17.22;85.22;98821.25;4123926;28;20633;-86
2022/07/13 02:14:09;;;;;;;5.80;4.00;;;;;;;17.22;85.42;98818.63;4109176;28;20641;-86
2022/07/13 02:16:13;;;;;;;6.67;3.77;;;;;;;17.22;84.45;98816.81;4107018;28;20646;-86
2022/07/13 02:18:16;;;;;;;4.23;3.70;;;;;;;17.22;84.70;98814.16;4108789;28;20750;-86
2022/07/13 02:20:19;;;;;;;9.03;3.90;;;;;;;17.22;85.76;98813.34;4123165;28;20629;-86
2022/07/13 02:22:22;;;;;;;4.20;3.80;;;;;;;17.21;85.73;98811.66;4125513;28;20970;-86
2022/07/13 02:24:25;;;;;;;4.47;3.87;;;;;;;17.21;85.19;98806.38;4110520;28;21050;-86
2022/07/13 02:26:28;;;;;;;4.33;3.80;;;;;;;17.21;85.01;98798.47;4107681;28;20646;-86
2022/07/13 02:28:31;;;;;;;4.30;3.83;;;;;;;17.20;85.84;98794.13;4108367;28;20653;-86
2022/07/13 02:30:36;;;;;;;4.63;3.60;;;;;;;17.19;85.88;98800.38;4124943;28;20632;-85
2022/07/13 02:32:40;;;;;;;4.90;3.33;;;;;;;17.19;84.88;98801.22;4123218;28;20644;-86
2022/07/13 02:34:43;;;;;;;4.70;3.53;;;;;;;17.21;85.60;98798.47;4113583;28;20704;-85
2022/07/13 02:36:50;;;;;;;3.90;3.60;;;;;;;17.22;84.35;98785.16;4110180;28;20637;-85
2022/07/13 02:38:53;;;;;;;4.00;3.40;;;;;;;17.21;85.00;98782.66;4125708;28;21214;-86
2022/07/13 02:40:56;;;;;;;4.47;3.53;;;;;;;17.15;84.82;98780.50;4126807;28;20629;-85
2022/07/13 02:43:00;;;;;;;4.43;3.87;;;;;;;17.13;85.40;98778.00;4105920;28;20791;-86
2022/07/13 02:45:03;;;;;;;4.27;3.33;;;;;;;17.11;84.26;98777.28;4107245;28;20646;-85
2022/07/13 02:47:08;;;;;;;4.30;3.90;;;;;;;17.07;85.28;98780.31;4093082;28;20644;-85
2022/07/13 02:49:12;;;;;;;4.00;3.50;;;;;;;17.02;84.92;98779.88;4123633;28;20759;-86
2022/07/13 02:51:15;;;;;;;4.53;3.87;;;;;;;17.00;85.71;98774.72;4109424;28;20640;-86
2022/07/13 02:53:19;;;;;;;4.10;3.50;;;;;;;16.97;84.80;98779.38;4108302;28;20624;-86
2022/07/13 02:55:22;;;;;;;4.00;3.60;;;;;;;16.95;86.50;98778.69;4128117;28;20653;-85
2022/07/13 02:57:25;;;;;;;4.60;3.60;;;;;;;16.94;84.67;98776.19;4107661;28;20675;-86
2022/07/13 02:59:32;;;;;;;4.13;3.63;;;;;;;16.94;85.86;98782.28;4107937;28;20673;-86
2022/07/13 03:01:36;;;;;;;4.57;3.80;;;;;;;16.93;84.43;98777.13;4108638;28;21047;-86
2022/07/13 03:03:40;;;;;;;3.87;3.43;;;;;;;16.89;84.11;98776.56;4125091;28;20634;-86
2022/07/13 03:05:44;;;;;;;4.40;3.67;;;;;;;16.83;86.17;98766.53;4108028;28;20684;-86
2022/07/13 03:07:47;;;;;;;4.40;4.00;;;;;;;16.80;85.45;98768.59;4106453;28;21280;-86
2022/07/13 03:09:52;;;;;;;3.73;3.33;;;;;;;16.77;85.13;98774.09;4108882;28;20799;-86
2022/07/13 03:12:00;;;;;;;5.40;4.00;;;;;;;16.76;85.22;98767.16;4121494;28;20986;-86
2022/07/13 03:14:05;;;;;;;4.30;3.73;;;;;;;16.74;85.02;98771.72;4121829;28;20680;-86
2022/07/13 03:16:08;;;;;;;5.57;4.20;;;;;;;16.74;85.82;98792.78;4106981;28;21841;-86
2022/07/13 03:18:11;;;;;;;4.47;4.03;;;;;;;16.72;86.82;98798.19;4125538;28;20669;-86
2022/07/13 03:20:16;;;;;;;5.63;4.17;;;;;;;16.68;84.66;98786.22;4127377;28;20750;-86
2022/07/13 03:22:20;;;;;;;5.13;4.50;;;;;;;16.63;85.33;98777.03;4121040;28;20699;-86
2022/07/13 03:24:24;;;;;;;4.37;3.73;;;;;;;16.57;86.02;98772.28;4106644;28;20628;-86
2022/07/13 03:26:27;;;;;;;4.10;3.63;;;;;;;16.53;85.65;98771.66;4125143;28;20660;-86
2022/07/13 03:28:31;;;;;;;5.60;4.10;;;;;;;16.51;86.40;98776.22;4108274;28;20645;-86
2022/07/13 03:30:34;;;;;;;5.70;4.13;;;;;;;16.51;85.95;98781.50;4111655;28;20646;-86
2022/07/13 03:32:38;;;;;;;4.40;4.00;;;;;;;16.52;86.03;98784.94;4107796;28;20637;-85
2022/07/13 03:34:41;;;;;;;4.40;3.70;;;;;;;16.52;86.41;98777.06;4110217;28;20642;-86
2022/07/13 03:36:47;;;;;;;4.43;3.47;;;;;;;16.53;85.02;98776.94;4125407;28;21081;-86
2022/07/13 03:38:51;;;;;;;5.23;4.07;;;;;;;16.53;86.48;98782.19;4106478;28;20644;-86
2022/07/13 03:40:54;;;;;;;4.70;3.93;;;;;;;16.53;86.45;98782.19;4109793;28;20739;-85
2022/07/13 03:42:57;;;;;;;5.17;4.00;;;;;;;16.54;87.01;98781.25;4106024;28;21116;-86
2022/07/13 03:45:01;;;;;;;3.57;3.27;;;;;;;16.55;85.22;98785.56;4118370;28;21219;-86
2022/07/13 03:47:04;;;;;;;6.00;3.97;;;;;;;16.55;87.11;98780.28;4104469;28;20636;-86
2022/07/13 03:49:07;;;;;;;4.20;3.80;;;;;;;16.56;85.17;98779.31;4122983;28;20697;-86
2022/07/13 03:51:11;;;;;;;5.23;3.57;;;;;;;16.56;87.19;98781.94;4092125;29;20692;-86
2022/07/13 03:53:15;;;;;;;4.00;3.60;;;;;;;16.56;86.87;98781.94;4107771;28;20642;-86
2022/07/13 03:55:18;;;;;;;5.30;3.83;;;;;;;16.55;85.43;98782.94;4106453;28;21179;-86
2022/07/13 03:57:23;;;;;;;3.93;3.30;;;;;;;16.53;87.10;98782.19;4124258;28;20749;-86
2022/07/13 03:59:26;;;;;;;4.13;3.73;;;;;;;16.52;85.68;98782.31;4124075;28;21085;-86
2022/07/13 04:01:30;;;;;;;3.87;3.20;;;;;;;16.52;86.35;98779.69;4105794;28;21345;-86
2022/07/13 04:03:33;;;;;;;4.47;3.47;;;;;;;16.53;86.42;98790.09;4103561;28;21084;-86
2022/07/13 04:05:37;;;;;;;5.83;3.60;;;;;;;16.55;85.76;98784.72;4124882;28;20672;-86
2022/07/13 04:07:42;;;;;;;4.00;3.67;;;;;;;16.58;86.97;98790.59;4107629;28;20648;-86
2022/07/13 04:09:47;;;;;;;4.67;3.67;;;;;;;16.62;86.38;98780.63;4109339;28;20634;-86
2022/07/13 04:11:51;;;;;;;5.30;3.70;;;;;;;16.65;86.26;98781.19;4091489;28;21052;-86
2022/07/13 04:13:55;;;;;;;3.80;3.40;;;;;;;16.69;84.85;98782.63;4103689;28;20732;-86
2022/07/13 04:15:58;;;;;;;5.33;3.90;;;;;;;16.71;85.36;98778.06;4104568;28;20655;-86
2022/07/13 04:18:06;;;;;;;5.20;3.50;;;;;;;16.75;86.15;98786.56;4107981;28;20636;-85
2022/07/13 04:20:12;;;;;;;4.40;4.00;;;;;;;16.78;84.95;98773.97;4105760;28;20730;-86
2022/07/13 04:22:18;;;;;;;5.13;3.90;;;;;;;16.80;86.77;98769.41;4109862;28;20632;-86
2022/07/13 04:24:22;;;;;;;5.80;3.87;;;;;;;16.76;85.57;98762.72;4106388;28;20644;-86
2022/07/13 04:26:29;;;;;;;4.57;3.80;;;;;;;16.75;85.46;98771.59;4107051;28;20651;-85
2022/07/13 04:28:33;;;;;;;4.80;3.80;;;;;;;16.78;84.52;98759.94;4106763;28;20629;-85
2022/07/13 04:30:38;;;;;;;4.00;3.57;;;;;;;16.79;84.34;98751.09;4105696;28;20756;-86
2022/07/13 04:32:41;;;;;;;4.43;3.87;;;;;;;16.81;85.14;98762.34;4091210;28;20643;-85
2022/07/13 04:34:44;;;;;;;7.50;4.87;;;;;;;16.80;85.26;98758.88;4094161;28;20646;-85
2022/07/13 04:36:51;;;;;;;5.67;4.07;;;;;;;16.83;84.63;98760.44;4107941;28;20673;-85
2022/07/13 04:38:55;;;;;;;8.47;4.40;;;;;;;16.87;85.27;98772.38;4109803;28;20637;-85
2022/07/13 04:40:58;;;;;;;4.30;3.90;;;;;;;16.94;86.04;98774.38;4110622;28;20653;-86
2022/07/13 04:43:03;;;;;;;3.87;3.47;;;;;;;17.01;85.61;98770.28;4108237;28;20650;-85
2022/07/13 04:45:07;;;;;;;4.70;3.90;;;;;;;17.05;84.56;98763.78;4106491;28;20747;-86
2022/07/13 04:47:10;;;;;;;4.30;3.90;;;;;;;17.13;84.78;98762.16;4125213;28;20631;-88
2022/07/13 04:49:15;;;;;;;4.77;4.30;;;;;;;17.17;85.05;98757.47;4109312;28;20640;-89
2022/07/13 04:51:18;;;;;;;5.47;4.20;;;;;;;17.19;85.17;98766.09;4110927;28;20733;-86
2022/07/13 04:53:24;;;;;;;7.00;3.73;;;;;;;17.24;83.60;98766.56;4112376;28;20636;-86
2022/07/13 04:55:29;;;;;;;4.57;4.07;;;;;;;17.27;84.60;98766.31;4123488;28;20675;-85
2022/07/13 04:57:32;;;;;;;5.40;3.50;;;;;;;17.31;84.24;98771.22;4124641;28;20663;-85
2022/07/13 04:59:36;;;;;;;4.30;3.90;;;;;;;17.33;84.90;98766.63;4128053;28;20670;-85
2022/07/13 05:01:40;;;;;;;4.70;4.07;;;;;;;17.33;84.98;98769.25;4124047;28;20633;-85
2022/07/13 05:03:44;;;;;;;4.27;3.87;;;;;;;17.32;83.45;98772.03;4107426;28;20642;-86
2022/07/13 05:05:47;;;;;;;4.00;3.60;;;;;;;17.30;83.72;98769.53;4123574;28;20663;-86
2022/07/13 05:07:51;;;;;;;4.20;3.80;;;;;;;17.34;83.82;98778.03;4106357;28;20737;-86
2022/07/13 05:09:54;;;;;;;4.03;3.63;;;;;;;17.41;83.77;98776.53;4110199;28;20643;-86
2022/07/13 05:11:57;;;;;;;5.53;4.67;;;;;;;17.49;84.55;98783.66;4123799;28;20650;-84
2022/07/13 05:14:01;;;;;;;4.20;3.70;;;;;;;17.59;85.41;98773.16;4123257;28;20673;-86
2022/07/13 05:16:07;;;;;;;4.90;4.40;;;;;;;17.67;83.71;98771.53;4108033;28;20615;-85
2022/07/13 05:18:10;;;;;;;4.70;4.30;;;;;;;17.79;83.66;98774.94;4108890;28;21217;-85
2022/07/13 05:20:13;;;;;;;3.97;3.57;;;;;;;17.87;82.37;98775.94;4104232;28;20744;-86
2022/07/13 05:22:23;;;;;;;4.43;3.73;;;;;;;17.98;82.82;98778.47;4111130;28;20644;-84
2022/07/13 05:24:26;;;;;;;5.20;3.83;;;;;;;18.02;82.68;98782.53;4111360;28;20702;-84
2022/07/13 05:26:30;;;;;;;5.77;3.80;;;;;;;18.01;81.08;98786.13;4126759;28;20740;-84
2022/07/13 05:28:33;;;;;;;5.43;4.20;;;;;;;18.02;81.41;98790.44;4106691;28;21022;-84
2022/07/13 05:30:36;;;;;;;7.20;4.50;;;;;;;18.04;81.20;98784.09;4109728;28;21244;-87
2022/07/13 05:32:41;;;;;;;5.27;4.17;;;;;;;18.13;82.36;98793.00;4126598;28;20668;-85
2022/07/13 05:34:44;;;;;;;6.00;4.00;;;;;;;18.21;83.46;98794.03;4122250;28;21066;-86
2022/07/13 05:36:47;;;;;;;5.00;3.97;;;;;;;18.30;82.75;98789.75;4125358;28;20698;-86
2022/07/13 05:38:51;;;;;;;4.80;4.00;;;;;;;18.41;83.47;98792.28;4109825;28;21086;-85
2022/07/13 05:40:54;;;;;;;5.57;4.63;;;;;;;18.52;82.33;98800.91;4100973;28;20631;-85
2022/07/13 05:42:57;;;;;;;6.13;4.30;;;;;;;18.60;81.22;98793.97;4112438;28;20632;-86
2022/07/13 05:45:00;;;;;;;4.70;3.70;;;;;;;18.70;80.48;98797.47;4129580;28;20738;-85
2022/07/13 05:47:04;;;;;;;4.90;4.10;;;;;;;18.86;81.51;98795.13;4127167;28;20696;-85
2022/07/13 05:49:08;;;;;;;4.90;4.10;;;;;;;19.16;79.56;98793.19;4131281;28;21058;-85
2022/07/13 05:51:12;;;;;;;6.60;4.20;;;;;;;19.54;78.09;98793.97;4122906;28;21264;-86
2022/07/13 05:53:35;;;;;;;5.67;4.07;;;;;;;19.82;77.93;98793.06;4111510;28;20633;-86
2022/07/13 05:55:38;;;;;;;6.40;4.23;;;;;;;19.91;78.31;98786.94;4107714;28;20638;-87
2022/07/13 05:57:42;;;;;;;8.30;4.50;;;;;;;20.09;78.67;98790.47;4125369;28;20663;-86
2022/07/13 05:59:45;;;;;;;5.07;4.50;;;;;;;20.69;78.94;98796.88;4110184;28;20693;-85
2022/07/13 06:01:48;;;;;;;5.40;4.90;;;;;;;21.20;77.76;98791.69;4126533;28;21037;-85
2022/07/13 06:03:51;;;;;;;3.90;3.50;;;;;;;21.40;75.99;98794.03;4109932;28;20648;-86
2022/07/13 06:05:55;;;;;;;5.43;3.80;;;;;;;21.32;76.31;98794.81;4128368;28;20701;-86
2022/07/13 06:07:59;;;;;;;5.70;4.57;;;;;;;21.31;76.69;98794.94;4095845;28;21287;-86
2022/07/13 06:10:02;;;;;;;5.10;3.53;;;;;;;21.31;76.89;98785.16;4113745;28;20717;-86
2022/07/13 06:12:05;;;;;;;8.80;4.10;;;;;;;21.36;77.18;98782.03;4106469;28;20632;-84
2022/07/13 06:14:09;;;;;;;4.53;3.73;;;;;;;21.45;77.41;98781.97;4113311;28;21274;-84
2022/07/13 06:16:12;;;;;;;4.77;4.27;;;;;;;21.55;77.74;98784.56;4113845;28;20616;-84
2022/07/13 06:18:15;;;;;;;4.53;4.00;;;;;;;21.71;76.67;98787.28;4115438;28;20664;-84
2022/07/13 06:20:18;;;;;;;5.07;3.83;;;;;;;21.79;75.57;98790.84;4109260;28;20682;-84
2022/07/13 06:22:23;;;;;;;4.30;3.90;;;;;;;21.87;77.25;98788.22;4094354;29;21008;-84
2022/07/13 06:24:26;;;;;;;5.93;4.50;;;;;;;21.94;77.32;98798.06;4110837;28;20635;-84
2022/07/13 06:26:30;;;;;;;4.70;3.90;;;;;;;22.00;74.94;98800.09;4094178;28;20630;-84
2022/07/13 06:28:33;;;;;;;4.33;3.93;;;;;;;22.32;76.08;98806.44;4125695;28;20688;-84
2022/07/13 06:30:37;;;;;;;4.00;3.37;;;;;;;23.08;75.92;98805.34;4105148;28;20653;-86
2022/07/13 06:32:40;;;;;;;3.90;3.50;;;;;;;23.81;74.23;98806.84;4108563;28;21008;-86
2022/07/13 06:34:43;;;;;;;4.73;3.80;;;;;;;23.96;71.29;98809.66;4110364;28;20653;-86
2022/07/13 06:36:46;;;;;;;4.00;3.60;;;;;;;24.14;71.28;98807.59;4110307;28;20730;-86
2022/07/13 06:38:51;;;;;;;3.97;3.57;;;;;;;24.54;70.49;98806.47;4127735;28;20676;-85
2022/07/13 06:40:54;;;;;;;5.30;3.50;;;;;;;24.88;67.29;98821.16;4107620;28;20671;-86
2022/07/13 06:42:57;;;;;;;8.60;3.90;;;;;;;25.00;68.90;98813.59;4114564;28;20632;-86
2022/07/13 06:45:01;;;;;;;5.03;3.30;;;;;;;25.06;67.63;98811.03;4124657;28;20631;-86
2022/07/13 06:47:04;;;;;;;4.63;2.97;;;;;;;25.28;65.54;98808.38;4125361;28;20730;-86
2022/07/13 06:49:07;;;;;;;3.50;2.90;;;;;;;25.46;65.90;98808.91;4109109;28;20648;-86
2022/07/13 06:51:11;;;;;;;2.83;2.63;;;;;;;25.33;64.57;98810.50;4110174;28;21208;-86
2022/07/13 06:53:14;;;;;;;4.00;2.70;;;;;;;25.30;65.35;98806.38;4123933;28;21209;-86
2022/07/13 06:55:19;;;;;;;3.10;2.80;;;;;;;25.64;63.30;98804.09;4107507;28;20640;-86
2022/07/13 06:57:22;;;;;;;3.83;2.63;;;;;;;25.88;62.90;98806.56;4125335;28;20669;-86
2022/07/13 06:59:25;;;;;;;3.83;2.53;;;;;;;25.77;63.18;98802.47;4127483;28;20643;-86
2022/07/13 07:01:28;;;;;;;3.43;3.13;;;;;;;25.56;62.52;98801.47;4122386;28;20645;-86
2022/07/13 07:03:32;;;;;;;2.77;2.53;;;;;;;25.42;64.39;98804.09;4109903;28;20738;-86
2022/07/13 07:05:35;;;;;;;3.37;2.43;;;;;;;25.24;62.84;98801.75;4124373;28;20645;-86
2022/07/13 07:07:38;;;;;;;3.03;2.60;;;;;;;25.08;62.80;98800.16;4125880;28;20669;-86
2022/07/13 07:09:41;;;;;;;2.77;2.47;;;;;;;25.02;63.88;98811.56;4124493;28;20721;-87
2022/07/13 07:11:46;;;;;;;3.77;2.53;;;;;;;24.95;65.17;98802.59;4110107;28;20704;-86
2022/07/13 07:13:50;;;;;;;3.97;2.90;;;;;;;24.91;65.09;98806.59;4127875;28;20723;-86
2022/07/13 07:15:53;;;;;;;2.77;2.30;;;;;;;24.87;64.51;98802.66;4122044;28;20638;-86
2022/07/13 07:17:56;;;;;;;3.90;2.83;;;;;;;24.87;64.37;98799.97;4116134;28;20667;-86
2022/07/13 07:20:00;;;;;;;3.67;2.33;;;;;;;24.84;64.37;98797.66;4107846;28;21297;-86
2022/07/13 07:22:03;;;;;;;4.07;2.80;;;;;;;24.84;64.51;98794.97;4125374;28;20682;-86
2022/07/13 07:24:06;;;;;;;4.50;2.57;;;;;;;24.91;65.61;98790.59;4104587;28;20734;-86
2022/07/13 07:26:09;;;;;;;4.80;2.40;;;;;;;25.03;66.23;98783.84;4126113;28;20634;-86
2022/07/13 07:28:13;;;;;;;3.20;2.47;;;;;;;25.17;65.69;98789.28;4125588;28;20633;-86
2022/07/13 07:30:17;;;;;;;2.70;2.50;;;;;;;25.37;66.23;98798.47;4107923;28;20649;-86
2022/07/13 07:32:21;;;;;;;2.90;2.60;;;;;;;25.47;66.20;98796.34;4109580;28;21216;-86
2022/07/13 07:34:24;;;;;;;3.40;2.60;;;;;;;25.63;65.41;98797.91;4110638;28;20648;-86
2022/07/13 07:36:27;;;;;;;3.23;2.60;;;;;;;26.13;65.07;98804.25;4126610;28;20742;-86
2022/07/13 07:38:30;;;;;;;3.20;2.87;;;;;;;26.37;65.13;98797.81;4110553;28;20646;-86
2022/07/13 07:40:36;;;;;;;3.23;2.90;;;;;;;26.59;64.77;98813.75;4125591;28;21060;-87
2022/07/13 07:42:40;;;;;;;4.70;3.20;;;;;;;27.06;63.99;98806.94;4123760;28;21229;-86
2022/07/13 07:44:44;;;;;;;3.30;2.97;;;;;;;27.12;62.83;98793.63;4123146;28;20644;-86
2022/07/13 07:46:48;;;;;;;5.20;2.57;;;;;;;27.32;61.75;98796.47;4124023;28;20634;-86
2022/07/13 07:48:51;;;;;;;2.90;2.60;;;;;;;27.91;64.52;98804.03;4124074;28;20740;-86
2022/07/13 07:50:55;;;;;;;3.20;2.70;;;;;;;28.38;60.69;98800.44;4121422;28;20650;-86
2022/07/13 07:52:58;;;;;;;4.30;2.30;;;;;;;28.56;59.64;98801.56;4105412;28;21218;-87
2022/07/13 07:55:01;;;;;;;2.50;2.23;;;;;;;28.97;58.65;98806.94;4125898;28;21240;-86
2022/07/13 07:57:06;;;;;;;3.37;2.20;;;;;;;29.24;54.79;98804.13;4092144;28;20692;-86
2022/07/13 07:59:09;;;;;;;7.13;2.37;;;;;;;29.47;56.71;98808.09;4124086;28;20698;-87
2022/07/13 08:01:14;;;;;;;6.23;2.40;;;;;;;29.57;55.19;98801.28;4109665;28;20738;-87
2022/07/13 08:03:17;;;;;;;2.40;2.00;;;;;;;29.51;55.27;98799.41;4107595;28;20656;-87
2022/07/13 08:05:20;;;;;;;6.03;2.13;;;;;;;29.41;54.14;98798.16;4108706;28;20634;-87
2022/07/13 08:07:23;;;;;;;6.10;2.40;;;;;;;29.31;55.03;98795.03;4107714;28;21210;-87
2022/07/13 08:09:26;;;;;;;2.90;1.90;;;;;;;29.44;57.52;98797.75;4108182;28;20623;-87
2022/07/13 08:11:29;;;;;;;3.07;1.70;;;;;;;29.81;55.29;98791.78;4107295;28;20640;-86
2022/07/13 08:13:33;;;;;;;2.40;1.70;;;;;;;30.08;53.52;98792.34;4107517;28;20635;-87
2022/07/13 08:15:36;;;;;;;2.10;1.63;;;;;;;30.51;53.68;98790.84;4102702;28;20929;-87
2022/07/13 08:17:41;;;;;;;3.40;1.60;;;;;;;30.63;53.61;98781.88;4124887;28;20628;-87
2022/07/13 08:19:44;;;;;;;2.00;1.60;;;;;;;30.62;52.55;98780.22;4123684;28;20729;-87
2022/07/13 08:21:47;;;;;;;2.90;2.10;;;;;;;30.90;51.81;98780.75;4122150;28;20646;-87
2022/07/13 08:23:54;;;;;;;1.90;1.50;;;;;;;31.25;52.59;98774.72;4110991;28;20666;-87
2022/07/13 08:25:58;;;;;;;2.13;1.90;;;;;;;31.56;52.03;98785.53;4125970;28;20643;-86
2022/07/13 08:28:01;;;;;;;1.97;1.67;;;;;;;31.88;51.54;98779.03;4110480;28;21258;-87
2022/07/13 08:30:05;;;;;;;2.50;1.53;;;;;;;31.93;48.72;98777.34;4103674;28;20634;-87
2022/07/13 08:32:08;;;;;;;2.73;1.60;;;;;;;31.65;51.69;98770.69;4120936;28;20642;-87
2022/07/13 08:38:54;;;;;;;1.70;1.40;;;;;;;30.78;51.96;98755.47;4109397;28;20735;-86
2022/07/13 08:40:57;;;;;;;2.47;1.53;;;;;;;30.71;53.22;98756.56;4092393;28;20631;-87
2022/07/13 08:43:01;;;;;;;2.50;1.80;;;;;;;30.60;53.65;98754.53;4125267;28;20638;-87
2022/07/13 08:45:04;;;;;;;4.50;2.00;;;;;;;30.55;53.28;98757.03;4123672;28;20630;-86
2022/07/13 08:47:07;;;;;;;2.20;1.70;;;;;;;30.70;53.16;98754.88;4121604;28;20685;-87
2022/07/13 08:49:12;;;;;;;1.83;1.63;;;;;;;30.82;52.11;98753.19;4119397;28;20690;-87
2022/07/13 08:51:17;;;;;;;2.00;1.70;;;;;;;31.03;51.68;98759.94;4111221;28;20651;-86
2022/07/13 08:53:21;;;;;;;2.20;2.00;;;;;;;31.26;51.05;98760.19;4126854;28;20642;-87
2022/07/13 08:55:25;;;;;;;2.13;1.50;;;;;;;31.46;52.91;98767.13;4108908;28;20635;-87
2022/07/13 08:57:29;;;;;;;2.30;1.87;;;;;;;31.52;52.56;98758.16;4121537;28;21070;-86
2022/07/13 08:59:33;;;;;;;3.77;1.73;;;;;;;31.88;52.11;98765.53;4110355;28;20660;-87
2022/07/13 09:01:36;;;;;;;2.87;1.83;;;;;;;32.21;51.67;98758.78;4112831;28;21012;-87
2022/07/13 09:07:40;;;;;;;7.60;2.40;;;;;;;32.38;50.03;98766.88;4111396;28;20646;-87
2022/07/13 09:09:43;;;;;;;7.07;2.00;;;;;;;32.54;50.13;98770.91;4129129;28;20653;-87
2022/07/13 09:12:16;;;;;;;2.37;1.70;;;;;;;32.77;48.49;98771.03;4095149;29;20707;-87
2022/07/13 09:14:25;;;;;;;1.90;1.70;;;;;;;32.73;48.37;98762.56;4128290;28;20631;-87
2022/07/13 09:16:29;;;;;;;2.37;2.10;;;;;;;32.72;47.18;98762.78;4124529;28;20730;-87
2022/07/13 09:18:36;;;;;;;2.93;1.83;;;;;;;32.73;48.69;98759.84;4126433;28;21186;-87
2022/07/13 09:20:39;;;;;;;4.10;1.90;;;;;;;32.87;49.09;98761.31;4108078;28;20629;-87
2022/07/13 09:22:48;;;;;;;2.47;1.73;;;;;;;32.81;48.50;98764.94;4126601;28;20716;-87
2022/07/13 09:24:53;;;;;;;4.00;2.03;;;;;;;32.98;48.01;98763.28;4110656;28;20644;-87
2022/07/13 09:26:57;;;;;;;4.70;1.83;;;;;;;32.94;48.87;98760.22;4132154;28;20638;-87
2022/07/13 09:29:01;;;;;;;2.93;2.27;;;;;;;33.01;49.46;98768.22;4122586;28;20634;-87
2022/07/13 09:31:04;;;;;;;2.03;1.80;;;;;;;33.07;49.26;98764.59;4127296;28;20643;-87
2022/07/13 09:33:07;;;;;;;2.63;1.50;;;;;;;33.07;48.79;98760.00;4114693;28;21245;-87
2022/07/13 09:35:11;;;;;;;2.30;1.90;;;;;;;33.02;47.39;98768.00;4110752;28;20632;-87
2022/07/13 09:37:17;;;;;;;2.40;2.10;;;;;;;33.01;49.50;98758.22;4113235;28;20658;-87
2022/07/13 09:39:21;;;;;;;2.47;1.80;;;;;;;33.04;48.89;98760.47;4106169;28;20692;-87
2022/07/13 09:41:25;;;;;;;3.63;1.73;;;;;;;33.10;49.24;98748.72;4110879;28;21124;-87
2022/07/13 09:48:13;;;;;;;2.57;1.83;;;;;;;32.99;45.98;98749.53;4108392;28;20683;-87
2022/07/13 09:50:18;;;;;;;1.80;1.60;;;;;;;32.98;47.37;98747.84;4112940;28;21054;-87
2022/07/13 09:52:31;;;;;;;2.23;1.50;;;;;;;32.99;44.57;98748.69;4110993;28;20728;-87
2022/07/13 09:54:43;;;;;;;3.87;2.00;;;;;;;33.02;45.91;98749.06;4108399;28;20636;-87
2022/07/13 09:56:49;;;;;;;2.83;1.73;;;;;;;33.06;46.38;98752.13;4109605;28;21289;-87
2022/07/13 09:58:52;;;;;;;2.20;1.80;;;;;;;33.05;46.31;98753.19;4127413;28;20627;-87
2022/07/13 10:00:57;;;;;;;2.07;1.50;;;;;;;32.97;45.78;98746.22;4114750;28;21071;-87
2022/07/13 10:03:01;;;;;;;2.07;1.87;;;;;;;32.99;45.66;98752.22;4109679;28;20682;-86
2022/07/13 10:05:06;;;;;;;2.30;2.10;;;;;;;32.93;46.66;98755.00;4109173;28;20640;-87
2022/07/13 10:07:10;;;;;;;2.70;2.43;;;;;;;32.93;48.91;98753.13;4108981;28;20672;-87
2022/07/13 10:09:13;;;;;;;2.20;1.93;;;;;;;32.91;47.07;98763.34;4105798;28;20632;-87
2022/07/13 10:11:18;;;;;;;2.13;1.93;;;;;;;32.85;47.43;98766.97;4110167;28;20683;-87
2022/07/13 10:13:21;;;;;;;2.60;1.80;;;;;;;32.97;49.74;98759.75;4111985;28;20638;-87
2022/07/13 10:15:25;;;;;;;3.17;1.73;;;;;;;33.05;50.43;98756.72;4107170;28;20699;-87
2022/07/13 10:17:28;;;;;;;2.00;1.80;;;;;;;33.12;46.36;98749.34;4127264;28;20626;-87
2022/07/13 10:19:32;;;;;;;3.10;1.67;;;;;;;33.14;46.86;98751.78;4110762;28;20668;-87